createdAt,value
2019-03-23T00:00:13.773Z,9.90
2019-03-23T00:02:43.716Z,9.90
2019-03-23T00:05:13.553Z,9.90
2019-03-23T00:07:42.825Z,9.80
2019-03-23T00:10:12.264Z,9.80
2019-03-23T00:12:41.545Z,9.70
2019-03-23T00:15:11.756Z,9.70
2019-03-23T00:17:41.052Z,9.70
2019-03-23T00:20:10.870Z,9.70
2019-03-23T00:22:40.158Z,9.70
2019-03-23T00:25:09.537Z,9.70
2019-03-23T00:27:38.860Z,9.70
2019-03-23T00:30:10.720Z,9.70
2019-03-23T00:32:40.013Z,9.60
2019-03-23T00:35:09.523Z,9.60
2019-03-23T00:37:38.804Z,9.60
2019-03-23T00:40:09.523Z,9.60
2019-03-23T00:42:38.802Z,9.50
2019-03-23T00:45:09.314Z,9.50
2019-03-23T00:47:38.604Z,9.40
2019-03-23T00:50:09.024Z,9.40
2019-03-23T00:52:38.293Z,9.40
2019-03-23T00:55:08.404Z,9.30
2019-03-23T00:57:37.688Z,9.30
2019-03-23T01:00:11.913Z,9.20
2019-03-23T01:02:42.000Z,9.20
2019-03-23T01:05:12.876Z,9.10
2019-03-23T01:07:42.190Z,9.00
2019-03-23T01:10:13.110Z,9.00
2019-03-23T01:12:42.459Z,8.90
2019-03-23T01:15:12.867Z,8.80
2019-03-23T01:17:42.331Z,8.70
2019-03-23T01:20:12.955Z,8.70
2019-03-23T01:22:42.224Z,8.60
2019-03-23T01:25:12.549Z,8.60
2019-03-23T01:27:41.836Z,8.50
2019-03-23T01:30:13.657Z,8.50
2019-03-23T01:32:42.928Z,8.40
2019-03-23T01:35:12.469Z,8.40
2019-03-23T01:37:41.778Z,8.30
2019-03-23T01:40:11.228Z,8.30
2019-03-23T01:42:40.494Z,8.30
2019-03-23T01:45:11.730Z,8.30
2019-03-23T01:47:40.993Z,8.20
2019-03-23T01:50:11.708Z,8.20
2019-03-23T01:52:41.557Z,8.10
2019-03-23T01:55:10.977Z,8.10
2019-03-23T01:57:40.258Z,8.00
2019-03-23T02:00:11.464Z,8.00
2019-03-23T02:02:40.815Z,8.00
2019-03-23T02:05:10.930Z,8.00
2019-03-23T02:07:40.222Z,7.90
2019-03-23T02:10:11.040Z,7.90
2019-03-23T02:12:40.297Z,7.90
2019-03-23T02:15:11.736Z,7.90
2019-03-23T02:17:41.008Z,7.90
2019-03-23T02:20:12.431Z,7.80
2019-03-23T02:22:41.788Z,7.80
2019-03-23T02:25:12.391Z,7.80
2019-03-23T02:27:41.678Z,7.80
2019-03-23T02:30:12.007Z,7.80
2019-03-23T02:32:41.283Z,7.80
2019-03-23T02:35:11.111Z,7.80
2019-03-23T02:37:40.449Z,7.80
2019-03-23T02:40:11.069Z,7.80
2019-03-23T02:42:40.381Z,7.80
2019-03-23T02:45:12.755Z,7.80
2019-03-23T02:47:42.089Z,7.80
2019-03-23T02:50:11.672Z,7.80
2019-03-23T02:52:40.951Z,7.80
2019-03-23T02:55:10.574Z,7.70
2019-03-23T02:57:39.921Z,7.70
2019-03-23T03:00:12.112Z,7.60
2019-03-23T03:02:41.453Z,7.50
2019-03-23T03:05:11.100Z,7.40
2019-03-23T03:07:43.237Z,7.20
2019-03-23T03:10:13.709Z,7.10
2019-03-23T03:12:42.982Z,7.00
2019-03-23T03:15:12.609Z,6.90
2019-03-23T03:17:41.876Z,6.80
2019-03-23T03:20:11.175Z,6.80
2019-03-23T03:22:40.472Z,6.70
2019-03-23T03:25:09.936Z,6.70
2019-03-23T03:27:39.221Z,6.70
2019-03-23T03:30:10.923Z,6.60
2019-03-23T03:32:40.280Z,6.70
2019-03-23T03:35:09.993Z,6.70
2019-03-23T03:37:55.719Z,6.70
2019-03-23T03:40:13.993Z,6.70
2019-03-23T03:42:43.300Z,6.70
2019-03-23T03:45:24.090Z,6.70
2019-03-23T03:47:53.425Z,6.70
2019-03-23T03:50:22.704Z,6.70
2019-03-23T03:52:51.993Z,6.60
2019-03-23T03:55:21.258Z,6.60
2019-03-23T03:57:50.541Z,6.60
2019-03-23T04:00:19.825Z,6.60
2019-03-23T04:02:49.122Z,6.60
2019-03-23T04:05:18.386Z,6.60
2019-03-23T04:07:47.687Z,6.60
2019-03-23T04:10:16.987Z,6.50
2019-03-23T04:12:46.261Z,6.50
2019-03-23T04:15:15.810Z,6.50
2019-03-23T04:17:45.130Z,6.50
2019-03-23T04:20:14.741Z,6.50
2019-03-23T04:22:44.037Z,6.50
2019-03-23T04:25:13.394Z,6.40
2019-03-23T04:27:42.770Z,6.40
2019-03-23T04:30:12.718Z,6.50
2019-03-23T04:32:42.012Z,6.50
2019-03-23T04:35:11.356Z,6.50
2019-03-23T04:37:40.629Z,6.50
2019-03-23T04:40:13.234Z,6.50
2019-03-23T04:42:42.529Z,6.50
2019-03-23T04:45:12.135Z,6.50
2019-03-23T04:47:41.424Z,6.50
2019-03-23T04:50:11.652Z,6.50
2019-03-23T04:52:42.006Z,6.50
2019-03-23T04:55:14.961Z,6.60
2019-03-23T04:57:44.245Z,6.60
2019-03-23T05:00:16.174Z,6.60
2019-03-23T05:02:45.525Z,6.60
2019-03-23T05:05:14.806Z,6.60
2019-03-23T05:07:44.092Z,6.70
2019-03-23T05:10:13.436Z,6.70
2019-03-23T05:12:42.717Z,6.70
2019-03-23T05:15:12.128Z,6.70
2019-03-23T05:17:41.416Z,6.70
2019-03-23T05:20:12.793Z,6.70
2019-03-23T05:22:42.089Z,6.70
2019-03-23T05:25:14.443Z,6.80
2019-03-23T05:27:43.712Z,6.80
2019-03-23T05:30:13.064Z,6.80
2019-03-23T05:32:42.358Z,6.80
2019-03-23T05:35:11.616Z,6.80
2019-03-23T05:37:40.890Z,6.80
2019-03-23T05:40:10.236Z,6.80
2019-03-23T05:42:40.481Z,6.90
2019-03-23T05:45:10.011Z,6.90
2019-03-23T05:47:39.282Z,6.90
2019-03-23T05:50:09.201Z,6.90
2019-03-23T05:52:38.556Z,7.00
2019-03-23T05:55:07.980Z,7.00
2019-03-23T05:57:37.256Z,7.00
2019-03-23T06:00:09.965Z,7.00
2019-03-23T06:02:39.237Z,7.10
2019-03-23T06:05:08.508Z,7.10
2019-03-23T06:07:37.787Z,7.10
2019-03-23T06:10:07.510Z,7.20
2019-03-23T06:12:36.784Z,7.20
2019-03-23T06:15:06.709Z,7.20
2019-03-23T06:17:35.981Z,7.20
2019-03-23T06:20:07.103Z,7.20
2019-03-23T06:22:36.373Z,7.30
2019-03-23T06:25:07.483Z,7.30
2019-03-23T06:27:36.736Z,7.40
2019-03-23T06:30:09.560Z,7.30
2019-03-23T06:32:38.840Z,7.40
2019-03-23T06:35:08.842Z,7.40
2019-03-23T06:37:38.147Z,7.50
2019-03-23T06:40:09.972Z,7.50
2019-03-23T06:42:39.640Z,7.50
2019-03-23T06:45:10.465Z,7.50
2019-03-23T06:47:39.748Z,7.50
2019-03-23T06:50:12.264Z,7.60
2019-03-23T06:52:41.651Z,7.60
2019-03-23T06:55:11.160Z,7.60
2019-03-23T06:57:40.445Z,7.60
2019-03-23T07:00:12.191Z,7.60
2019-03-23T07:02:41.556Z,7.60
2019-03-23T07:05:10.954Z,7.70
2019-03-23T07:07:40.235Z,7.70
2019-03-23T07:10:12.551Z,7.70
2019-03-23T07:12:41.827Z,7.70
2019-03-23T07:15:20.015Z,7.70
2019-03-23T07:17:43.088Z,7.70
2019-03-23T07:20:13.705Z,7.70
2019-03-23T07:22:43.008Z,7.70
2019-03-23T07:25:12.816Z,7.70
2019-03-23T07:27:42.101Z,7.70
2019-03-23T07:30:16.653Z,7.70
2019-03-23T07:32:45.937Z,7.70
2019-03-23T07:35:15.354Z,7.70
2019-03-23T07:37:44.638Z,7.70
2019-03-23T07:40:14.149Z,7.70
2019-03-23T07:42:43.503Z,7.70
2019-03-23T07:45:14.421Z,7.80
2019-03-23T07:47:43.708Z,7.80
2019-03-23T07:50:14.525Z,7.80
2019-03-23T07:52:43.808Z,7.80
2019-03-23T07:55:16.463Z,7.80
2019-03-23T07:57:45.753Z,7.80
2019-03-23T08:00:21.846Z,7.80
2019-03-23T08:02:51.125Z,7.80
2019-03-23T08:05:20.400Z,7.90
2019-03-23T08:07:49.680Z,7.90
2019-03-23T08:10:34.846Z,7.90
2019-03-23T08:13:04.130Z,7.90
2019-03-23T08:15:33.471Z,7.90
2019-03-23T08:18:02.821Z,7.90
2019-03-23T08:20:32.092Z,7.90
2019-03-23T08:23:01.399Z,7.90
2019-03-23T08:25:30.649Z,7.90
2019-03-23T08:27:59.938Z,8.00
2019-03-23T08:30:29.212Z,8.00
2019-03-23T08:32:58.491Z,8.00
2019-03-23T08:35:27.772Z,8.10
2019-03-23T08:37:58.020Z,8.10
2019-03-23T08:40:27.300Z,8.10
2019-03-23T08:42:56.581Z,8.20
2019-03-23T08:45:25.876Z,8.30
2019-03-23T08:47:55.166Z,8.30
2019-03-23T08:50:24.450Z,8.40
2019-03-23T08:52:53.720Z,8.40
2019-03-23T08:55:23.001Z,8.50
2019-03-23T08:57:52.273Z,8.60
2019-03-23T09:00:21.563Z,8.60
2019-03-23T09:02:50.840Z,8.70
2019-03-23T09:05:20.120Z,8.80
2019-03-23T09:07:49.392Z,8.80
2019-03-23T09:10:18.676Z,8.90
2019-03-23T09:12:48.928Z,9.00
2019-03-23T09:15:18.227Z,9.10
2019-03-23T09:17:47.509Z,9.20
2019-03-23T09:20:16.798Z,9.30
2019-03-23T09:22:46.090Z,9.30
2019-03-23T09:25:15.383Z,9.40
2019-03-23T09:27:44.644Z,9.40
2019-03-23T09:30:14.372Z,9.50
2019-03-23T09:32:43.640Z,9.60
2019-03-23T09:35:12.997Z,9.60
2019-03-23T09:37:42.278Z,9.50
2019-03-23T09:40:11.751Z,9.60
2019-03-23T09:42:41.051Z,9.60
2019-03-23T09:45:29.676Z,9.60
2019-03-23T09:47:58.952Z,9.60
2019-03-23T09:50:28.240Z,9.70
2019-03-23T09:52:57.512Z,9.70
2019-03-23T09:55:28.693Z,9.80
2019-03-23T09:57:57.758Z,9.80
2019-03-23T10:00:27.047Z,9.90
2019-03-23T10:02:56.320Z,9.90
2019-03-23T10:05:25.609Z,9.90
2019-03-23T10:07:54.893Z,10.00
2019-03-23T10:10:24.181Z,10.00
2019-03-23T10:12:53.461Z,10.00
2019-03-23T10:15:22.773Z,10.00
2019-03-23T10:17:52.079Z,10.10
2019-03-23T10:20:21.376Z,10.10
2019-03-23T10:22:50.652Z,10.00
2019-03-23T10:25:19.935Z,10.00
2019-03-23T10:27:49.210Z,10.10
2019-03-23T10:30:18.496Z,10.10
2019-03-23T10:32:47.790Z,10.10
2019-03-23T10:35:18.145Z,10.10
2019-03-23T10:37:47.489Z,10.10
2019-03-23T10:40:16.778Z,10.10
2019-03-23T10:42:46.056Z,10.10
2019-03-23T10:45:15.413Z,10.10
2019-03-23T10:47:44.798Z,10.10
2019-03-23T10:50:14.588Z,10.10
2019-03-23T10:52:43.892Z,10.10
2019-03-23T10:55:13.184Z,10.20
2019-03-23T10:57:42.479Z,10.20
2019-03-23T11:00:13.193Z,10.20
2019-03-23T11:02:42.488Z,10.20
2019-03-23T11:05:12.114Z,10.10
2019-03-23T11:07:41.440Z,10.10
2019-03-23T11:10:14.898Z,10.10
2019-03-23T11:12:44.211Z,10.10
2019-03-23T11:15:13.493Z,10.20
2019-03-23T11:17:42.796Z,10.20
2019-03-23T11:20:13.201Z,10.20
2019-03-23T11:22:42.519Z,10.20
2019-03-23T11:25:11.860Z,10.20
2019-03-23T11:27:41.168Z,10.20
2019-03-23T11:30:12.594Z,10.20
2019-03-23T11:32:41.912Z,10.10
2019-03-23T11:35:11.216Z,10.20
2019-03-23T11:37:40.786Z,10.20
2019-03-23T11:40:11.163Z,10.20
2019-03-23T11:42:49.167Z,10.20
2019-03-23T11:45:12.956Z,10.20
2019-03-23T11:47:42.245Z,10.20
2019-03-23T11:50:11.599Z,10.20
2019-03-23T11:52:40.922Z,10.30
2019-03-23T11:55:10.274Z,10.30
2019-03-23T11:57:39.653Z,10.30
2019-03-23T12:00:12.050Z,10.30
2019-03-23T12:02:41.397Z,10.30
2019-03-23T12:05:10.755Z,10.40
2019-03-23T12:07:40.036Z,10.40
2019-03-23T12:10:11.360Z,10.50
2019-03-23T12:12:40.644Z,10.70
2019-03-23T12:15:12.168Z,10.90
2019-03-23T12:17:41.460Z,11.10
2019-03-23T12:20:11.589Z,11.30
2019-03-23T12:22:41.861Z,11.60
2019-03-23T12:25:11.218Z,11.90
2019-03-23T12:27:40.534Z,12.10
2019-03-23T12:30:13.013Z,12.20
2019-03-23T12:32:42.338Z,12.20
2019-03-23T12:35:12.351Z,12.20
2019-03-23T12:37:41.637Z,12.10
2019-03-23T12:40:11.464Z,12.00
2019-03-23T12:42:40.740Z,11.90
2019-03-23T12:45:10.876Z,11.80
2019-03-23T12:47:40.186Z,11.80
2019-03-23T12:50:11.495Z,11.90
2019-03-23T12:52:40.780Z,11.90
2019-03-23T12:55:10.113Z,12.00
2019-03-23T12:57:40.495Z,12.00
2019-03-23T13:00:17.324Z,12.10
2019-03-23T13:02:46.605Z,12.20
2019-03-23T13:05:15.900Z,12.30
2019-03-23T13:07:45.182Z,12.40
2019-03-23T13:10:15.003Z,12.50
2019-03-23T13:12:44.279Z,12.60
2019-03-23T13:15:15.705Z,12.60
2019-03-23T13:17:45.960Z,12.70
2019-03-23T13:20:15.356Z,12.70
2019-03-23T13:22:44.809Z,12.60
2019-03-23T13:25:14.104Z,12.60
2019-03-23T13:27:43.405Z,12.70
2019-03-23T13:30:14.976Z,12.70
2019-03-23T13:32:44.261Z,12.80
2019-03-23T13:35:13.544Z,12.70
2019-03-23T13:37:42.820Z,12.70
2019-03-23T13:40:12.944Z,12.70
2019-03-23T13:42:42.219Z,12.60
2019-03-23T13:45:11.848Z,12.60
2019-03-23T13:47:41.297Z,12.60
2019-03-23T13:50:11.334Z,12.60
2019-03-23T13:52:40.595Z,12.70
2019-03-23T13:55:31.067Z,12.70
2019-03-23T13:58:14.393Z,12.80
2019-03-23T14:00:43.822Z,12.80
2019-03-23T14:03:13.160Z,12.90
2019-03-23T14:05:42.441Z,13.00
2019-03-23T14:08:11.718Z,13.10
2019-03-23T14:10:41.071Z,13.20
2019-03-23T14:13:10.333Z,13.40
2019-03-23T14:15:39.704Z,13.50
2019-03-23T14:18:08.979Z,13.60
2019-03-23T14:20:38.266Z,13.80
2019-03-23T14:23:07.531Z,13.90
2019-03-23T14:25:36.816Z,13.90
2019-03-23T14:28:08.144Z,13.80
2019-03-23T14:30:37.073Z,13.70
2019-03-23T14:33:07.416Z,13.70
2019-03-23T14:35:37.669Z,13.70
2019-03-23T14:38:06.944Z,13.70
2019-03-23T14:40:36.243Z,13.60
2019-03-23T14:43:05.520Z,13.50
2019-03-23T14:45:36.897Z,13.50
2019-03-23T14:48:25.186Z,13.60
2019-03-23T14:50:54.463Z,13.60
2019-03-23T14:53:23.828Z,13.60
2019-03-23T14:55:53.121Z,13.60
2019-03-23T14:58:22.463Z,13.60
2019-03-23T15:00:51.736Z,13.50
2019-03-23T15:03:21.019Z,13.40
2019-03-23T15:05:50.288Z,13.30
2019-03-23T15:08:19.573Z,13.20
2019-03-23T15:10:48.844Z,13.20
2019-03-23T15:13:18.131Z,13.10
2019-03-23T15:15:47.431Z,13.10
2019-03-23T15:18:16.696Z,13.00
2019-03-23T15:20:45.996Z,13.00
2019-03-23T15:23:15.284Z,12.90
2019-03-23T15:25:44.575Z,12.80
2019-03-23T15:28:13.882Z,12.80
2019-03-23T15:30:43.236Z,12.70
2019-03-23T15:33:12.532Z,12.60
2019-03-23T15:35:42.788Z,12.60
2019-03-23T15:38:12.109Z,12.50
2019-03-23T15:40:41.401Z,12.50
2019-03-23T15:43:10.794Z,12.40
2019-03-23T15:45:40.064Z,12.40
2019-03-23T15:48:09.347Z,12.30
2019-03-23T15:50:38.641Z,12.30
2019-03-23T15:53:09.842Z,12.20
2019-03-23T15:55:39.121Z,12.20
2019-03-23T15:58:08.420Z,12.10
2019-03-23T16:00:37.710Z,12.10
2019-03-23T16:03:07.002Z,12.00
2019-03-23T16:05:36.289Z,12.00
2019-03-23T16:08:05.579Z,12.00
2019-03-23T16:10:35.942Z,12.00
2019-03-23T16:13:05.228Z,12.00
2019-03-23T16:15:34.517Z,12.00
2019-03-23T16:18:03.826Z,11.90
2019-03-23T16:20:33.100Z,11.90
2019-03-23T16:23:02.453Z,11.90
2019-03-23T16:25:31.736Z,11.80
2019-03-23T16:28:01.029Z,11.90
2019-03-23T16:30:31.551Z,11.90
2019-03-23T16:33:00.859Z,11.90
2019-03-23T16:35:30.132Z,11.90
2019-03-23T16:37:59.424Z,12.00
2019-03-23T16:40:29.699Z,12.00
2019-03-23T16:42:59.004Z,11.90
2019-03-23T16:45:28.296Z,11.90
2019-03-23T16:47:57.584Z,11.90
2019-03-23T16:50:26.877Z,11.90
2019-03-23T16:52:56.156Z,11.80
2019-03-23T16:55:26.368Z,11.80
2019-03-23T16:57:55.655Z,11.80
2019-03-23T17:00:33.875Z,11.80
2019-03-23T17:03:03.638Z,11.80
2019-03-23T17:05:32.924Z,11.80
2019-03-23T17:08:02.205Z,11.70
2019-03-23T17:10:31.488Z,11.70
2019-03-23T17:13:01.615Z,11.70
2019-03-23T17:15:30.968Z,11.60
2019-03-23T17:18:00.256Z,11.60
2019-03-23T17:20:29.547Z,11.60
2019-03-23T17:22:58.827Z,11.60
2019-03-23T17:25:28.114Z,11.60
2019-03-23T17:27:57.396Z,11.60
2019-03-23T17:30:26.697Z,11.70
2019-03-23T17:32:55.999Z,11.70
2019-03-23T17:35:25.293Z,11.70
2019-03-23T17:37:54.583Z,11.70
2019-03-23T17:40:23.916Z,11.70
2019-03-23T17:42:53.229Z,11.60
2019-03-23T17:45:22.566Z,11.60
2019-03-23T17:47:51.850Z,11.60
2019-03-23T17:50:21.206Z,11.60
2019-03-23T17:52:50.512Z,11.60
2019-03-23T17:55:19.805Z,11.60
2019-03-23T17:57:50.047Z,11.60
2019-03-23T18:00:19.577Z,11.60
2019-03-23T18:02:48.954Z,11.50
2019-03-23T18:05:18.292Z,11.50
2019-03-23T18:07:47.586Z,11.50
2019-03-23T18:10:17.053Z,11.50
2019-03-23T18:12:46.333Z,11.50
2019-03-23T18:15:15.734Z,11.50
2019-03-23T18:17:45.012Z,11.50
2019-03-23T18:20:14.576Z,11.40
2019-03-23T18:22:43.862Z,11.40
2019-03-23T18:25:13.297Z,11.40
2019-03-23T18:27:42.588Z,11.40
2019-03-23T18:30:35.658Z,11.40
2019-03-23T18:33:05.577Z,11.40
2019-03-23T18:35:34.859Z,11.40
2019-03-23T18:38:05.020Z,11.40
2019-03-23T18:40:35.524Z,11.30
2019-03-23T18:43:05.568Z,11.30
2019-03-23T18:45:34.847Z,11.30
2019-03-23T18:48:04.781Z,11.30
2019-03-23T18:50:34.071Z,11.30
2019-03-23T18:53:03.487Z,11.30
2019-03-23T18:55:32.769Z,11.30
2019-03-23T18:58:02.077Z,11.30
2019-03-23T19:00:35.691Z,11.20
2019-03-23T19:03:05.619Z,11.20
2019-03-23T19:05:35.238Z,11.20
2019-03-23T19:08:04.904Z,11.20
2019-03-23T19:10:34.188Z,11.20
2019-03-23T19:13:03.850Z,11.20
2019-03-23T19:15:33.369Z,11.20
2019-03-23T19:18:02.661Z,11.20
2019-03-23T19:20:31.944Z,11.20
2019-03-23T19:23:01.240Z,11.20
2019-03-23T19:25:30.529Z,11.20
2019-03-23T19:27:59.822Z,11.20
2019-03-23T19:30:29.167Z,11.20
2019-03-23T19:32:58.471Z,11.20
2019-03-23T19:35:27.754Z,11.20
2019-03-23T19:37:57.049Z,11.20
2019-03-23T19:40:26.332Z,11.20
2019-03-23T19:42:55.621Z,11.20
2019-03-23T19:45:24.910Z,11.20
2019-03-23T19:47:54.235Z,11.20
2019-03-23T19:50:23.564Z,11.20
2019-03-23T19:52:52.871Z,11.10
2019-03-23T19:55:22.148Z,11.20
2019-03-23T19:57:54.612Z,11.20
2019-03-23T20:00:22.504Z,11.20
2019-03-23T20:02:51.831Z,11.10
2019-03-23T20:05:21.104Z,11.20
2019-03-23T20:07:50.409Z,11.20
2019-03-23T20:10:19.756Z,11.20
2019-03-23T20:12:49.045Z,11.20
2019-03-23T20:15:18.331Z,11.10
2019-03-23T20:17:47.612Z,11.10
2019-03-23T20:20:17.349Z,11.10
2019-03-23T20:22:46.636Z,11.10
2019-03-23T20:25:16.021Z,11.10
2019-03-23T20:27:45.294Z,11.10
2019-03-23T20:30:15.332Z,11.10
2019-03-23T20:32:44.686Z,11.10
2019-03-23T20:35:14.058Z,11.10
2019-03-23T20:37:43.342Z,11.10
2019-03-23T20:40:13.428Z,11.10
2019-03-23T20:42:43.822Z,11.10
2019-03-23T20:45:15.316Z,11.10
2019-03-23T20:47:44.745Z,11.10
2019-03-23T20:50:14.131Z,11.10
2019-03-23T20:52:43.497Z,11.10
2019-03-23T20:55:24.126Z,11.10
2019-03-23T20:57:54.134Z,11.10
2019-03-23T21:00:23.448Z,11.10
2019-03-23T21:02:52.817Z,11.10
2019-03-23T21:05:33.225Z,11.00
2019-03-23T21:07:53.354Z,11.00
2019-03-23T21:10:22.923Z,11.00
2019-03-23T21:12:52.208Z,11.00
2019-03-23T21:15:21.499Z,11.00
2019-03-23T21:17:51.864Z,11.00
2019-03-23T21:20:21.156Z,11.00
2019-03-23T21:22:50.445Z,11.00
2019-03-23T21:25:19.737Z,11.00
2019-03-23T21:27:49.018Z,11.00
2019-03-23T21:30:19.657Z,10.90
2019-03-23T21:32:48.933Z,10.90
2019-03-23T21:35:18.236Z,10.90
2019-03-23T21:37:47.799Z,10.90
2019-03-23T21:40:17.151Z,10.90
2019-03-23T21:42:46.427Z,10.90
2019-03-23T21:45:15.938Z,10.90
2019-03-23T21:47:45.229Z,10.90
2019-03-23T21:50:14.656Z,10.90
2019-03-23T21:52:43.939Z,10.90
2019-03-23T21:55:14.572Z,10.90
2019-03-23T21:57:43.873Z,10.90
2019-03-23T22:00:14.714Z,10.80
2019-03-23T22:02:44.001Z,10.80
2019-03-23T22:05:13.340Z,10.80
2019-03-23T22:07:42.636Z,10.80
2019-03-23T22:10:12.004Z,10.80
2019-03-23T22:12:41.284Z,10.80
2019-03-23T22:15:10.897Z,10.80
2019-03-23T22:17:40.199Z,10.80
2019-03-23T22:20:09.644Z,10.80
2019-03-23T22:22:38.941Z,10.80
2019-03-23T22:25:08.665Z,10.80
2019-03-23T22:27:37.961Z,10.80
2019-03-23T22:30:12.166Z,10.80
2019-03-23T22:32:41.452Z,10.80
2019-03-23T22:35:12.545Z,10.80
2019-03-23T22:37:41.840Z,10.70
2019-03-23T22:40:12.068Z,10.70
2019-03-23T22:42:41.377Z,10.70
2019-03-23T22:45:11.309Z,10.70
2019-03-23T22:47:40.605Z,10.70
2019-03-23T22:50:10.709Z,10.70
2019-03-23T22:52:39.988Z,10.80
2019-03-23T22:55:09.339Z,10.70
2019-03-23T22:57:38.634Z,10.80
2019-03-23T23:00:11.743Z,10.80
2019-03-23T23:02:42.566Z,10.70
2019-03-23T23:05:11.908Z,10.70
2019-03-23T23:07:41.188Z,10.70
2019-03-23T23:10:11.304Z,10.70
2019-03-23T23:12:40.585Z,10.70
2019-03-23T23:15:10.410Z,10.70
2019-03-23T23:17:40.642Z,10.60
2019-03-23T23:20:10.180Z,10.60
2019-03-23T23:22:39.540Z,10.60
2019-03-23T23:25:09.096Z,10.60
2019-03-23T23:27:38.369Z,10.60
2019-03-23T23:30:11.344Z,10.60
2019-03-23T23:32:40.652Z,10.60
2019-03-23T23:35:11.072Z,10.70
2019-03-23T23:37:41.320Z,10.60
2019-03-23T23:40:10.837Z,10.60
2019-03-23T23:42:40.113Z,10.60
2019-03-23T23:45:15.675Z,10.60
2019-03-23T23:47:41.906Z,10.60
2019-03-23T23:50:11.832Z,10.60
2019-03-23T23:52:41.106Z,10.60
2019-03-23T23:55:10.462Z,10.50
2019-03-23T23:57:39.745Z,10.50
